sensor_id;sensor_type;location;lat;lon;timestamp;P1;durP1;ratioP1;P2;durP2;ratioP2
69404;SDS011;57084;52.046;5.632;2023-01-24T00:00:00;19.7;;;17.8;;
69404;SDS011;57084;52.046;5.632;2023-01-24T00:01:00;19.1;;;17.0;;
69404;SDS011;57084;52.046;5.632;2023-01-24T00:02:00;19.1;;;17.0;;
69404;SDS011;57084;52.046;5.632;2023-01-24T00:03:01;19.1;;;17.0;;
69404;SDS011;57084;52.046;5.632;2023-01-24T00:04:00;19.1;;;17.0;;
69404;SDS011;57084;52.046;5.632;2023-01-24T00:05:00;19.1;;;17.0;;
69404;SDS011;57084;52.046;5.632;2023-01-24T00:06:00;20.3;;;18.3;;
69404;SDS011;57084;52.046;5.632;2023-01-24T00:07:00;20.3;;;18.3;;
69404;SDS011;57084;52.046;5.632;2023-01-24T00:08:00;20.3;;;18.3;;
69404;SDS011;57084;52.046;5.632;2023-01-24T00:09:00;20.3;;;18.3;;
69404;SDS011;57084;52.046;5.632;2023-01-24T00:10:00;20.3;;;18.3;;
69404;SDS011;57084;52.046;5.632;2023-01-24T00:11:01;19.8;;;17.8;;
69404;SDS011;57084;52.046;5.632;2023-01-24T00:12:00;19.8;;;17.8;;
69404;SDS011;57084;52.046;5.632;2023-01-24T00:13:00;19.8;;;17.8;;
69404;SDS011;57084;52.046;5.632;2023-01-24T00:14:00;19.8;;;17.8;;
69404;SDS011;57084;52.046;5.632;2023-01-24T00:15:00;19.8;;;17.8;;
69404;SDS011;57084;52.046;5.632;2023-01-24T00:16:01;21.9;;;19.7;;
69404;SDS011;57084;52.046;5.632;2023-01-24T00:17:00;21.9;;;19.7;;
69404;SDS011;57084;52.046;5.632;2023-01-24T00:18:00;21.9;;;19.7;;
69404;SDS011;57084;52.046;5.632;2023-01-24T00:19:00;21.9;;;19.7;;
69404;SDS011;57084;52.046;5.632;2023-01-24T00:20:00;21.9;;;19.7;;
69404;SDS011;57084;52.046;5.632;2023-01-24T00:21:02;19.6;;;17.7;;
69404;SDS011;57084;52.046;5.632;2023-01-24T00:22:01;19.6;;;17.7;;
69404;SDS011;57084;52.046;5.632;2023-01-24T00:23:00;19.6;;;17.7;;
69404;SDS011;57084;52.046;5.632;2023-01-24T00:24:00;19.6;;;17.7;;
69404;SDS011;57084;52.046;5.632;2023-01-24T00:25:00;19.6;;;17.7;;
69404;SDS011;57084;52.046;5.632;2023-01-24T00:26:00;19.7;;;17.8;;
69404;SDS011;57084;52.046;5.632;2023-01-24T00:27:01;19.7;;;17.8;;
69404;SDS011;57084;52.046;5.632;2023-01-24T00:28:00;19.7;;;17.8;;
69404;SDS011;57084;52.046;5.632;2023-01-24T00:29:00;19.7;;;17.8;;
69404;SDS011;57084;52.046;5.632;2023-01-24T00:30:00;19.7;;;17.8;;
69404;SDS011;57084;52.046;5.632;2023-01-24T00:31:00;20.5;;;18.4;;
69404;SDS011;57084;52.046;5.632;2023-01-24T00:32:00;20.5;;;18.4;;
69404;SDS011;57084;52.046;5.632;2023-01-24T00:33:00;20.5;;;18.4;;
69404;SDS011;57084;52.046;5.632;2023-01-24T00:34:00;20.5;;;18.4;;
69404;SDS011;57084;52.046;5.632;2023-01-24T00:35:00;20.5;;;18.4;;
69404;SDS011;57084;52.046;5.632;2023-01-24T00:36:01;21.4;;;19.2;;
69404;SDS011;57084;52.046;5.632;2023-01-24T00:37:00;21.4;;;19.2;;
69404;SDS011;57084;52.046;5.632;2023-01-24T00:38:00;21.4;;;19.2;;
69404;SDS011;57084;52.046;5.632;2023-01-24T00:39:00;21.4;;;19.2;;
69404;SDS011;57084;52.046;5.632;2023-01-24T00:40:00;21.4;;;19.2;;
69404;SDS011;57084;52.046;5.632;2023-01-24T00:41:00;21.0;;;18.8;;
69404;SDS011;57084;52.046;5.632;2023-01-24T00:42:00;21.0;;;18.8;;
69404;SDS011;57084;52.046;5.632;2023-01-24T00:43:00;21.0;;;18.8;;
69404;SDS011;57084;52.046;5.632;2023-01-24T00:44:00;21.0;;;18.8;;
69404;SDS011;57084;52.046;5.632;2023-01-24T00:45:00;21.0;;;18.8;;
69404;SDS011;57084;52.046;5.632;2023-01-24T00:46:01;21.3;;;19.1;;
69404;SDS011;57084;52.046;5.632;2023-01-24T00:47:00;21.3;;;19.1;;
69404;SDS011;57084;52.046;5.632;2023-01-24T00:48:00;21.3;;;19.1;;
69404;SDS011;57084;52.046;5.632;2023-01-24T00:49:00;21.3;;;19.1;;
69404;SDS011;57084;52.046;5.632;2023-01-24T00:50:00;21.3;;;19.1;;
69404;SDS011;57084;52.046;5.632;2023-01-24T00:51:00;20.8;;;18.6;;
69404;SDS011;57084;52.046;5.632;2023-01-24T00:52:00;20.8;;;18.6;;
69404;SDS011;57084;52.046;5.632;2023-01-24T00:53:01;20.8;;;18.6;;
69404;SDS011;57084;52.046;5.632;2023-01-24T00:54:00;20.8;;;18.6;;
69404;SDS011;57084;52.046;5.632;2023-01-24T00:55:00;20.8;;;18.6;;
69404;SDS011;57084;52.046;5.632;2023-01-24T00:56:00;19.5;;;17.5;;
69404;SDS011;57084;52.046;5.632;2023-01-24T00:57:00;19.5;;;17.5;;
69404;SDS011;57084;52.046;5.632;2023-01-24T00:58:00;19.5;;;17.5;;
69404;SDS011;57084;52.046;5.632;2023-01-24T00:59:00;19.5;;;17.5;;
69404;SDS011;57084;52.046;5.632;2023-01-24T01:00:00;19.5;;;17.5;;
69404;SDS011;57084;52.046;5.632;2023-01-24T01:01:01;19.0;;;17.2;;
69404;SDS011;57084;52.046;5.632;2023-01-24T01:02:00;19.0;;;17.2;;
69404;SDS011;57084;52.046;5.632;2023-01-24T01:03:00;19.0;;;17.2;;
69404;SDS011;57084;52.046;5.632;2023-01-24T01:04:00;19.0;;;17.2;;
69404;SDS011;57084;52.046;5.632;2023-01-24T01:05:00;19.0;;;17.2;;
69404;SDS011;57084;52.046;5.632;2023-01-24T01:06:03;20.1;;;18.0;;
69404;SDS011;57084;52.046;5.632;2023-01-24T01:07:00;20.1;;;18.0;;
69404;SDS011;57084;52.046;5.632;2023-01-24T01:08:00;20.1;;;18.0;;
69404;SDS011;57084;52.046;5.632;2023-01-24T01:09:00;20.1;;;18.0;;
69404;SDS011;57084;52.046;5.632;2023-01-24T01:10:00;20.1;;;18.0;;
69404;SDS011;57084;52.046;5.632;2023-01-24T01:11:01;20.8;;;18.8;;
69404;SDS011;57084;52.046;5.632;2023-01-24T01:12:00;20.8;;;18.8;;
69404;SDS011;57084;52.046;5.632;2023-01-24T01:13:00;20.8;;;18.8;;
69404;SDS011;57084;52.046;5.632;2023-01-24T01:14:00;20.8;;;18.8;;
69404;SDS011;57084;52.046;5.632;2023-01-24T01:15:00;20.8;;;18.8;;
69404;SDS011;57084;52.046;5.632;2023-01-24T01:16:01;20.1;;;18.1;;
69404;SDS011;57084;52.046;5.632;2023-01-24T01:17:00;20.1;;;18.1;;
69404;SDS011;57084;52.046;5.632;2023-01-24T01:18:00;20.1;;;18.1;;
69404;SDS011;57084;52.046;5.632;2023-01-24T01:19:00;20.1;;;18.1;;
69404;SDS011;57084;52.046;5.632;2023-01-24T01:20:00;20.1;;;18.1;;
69404;SDS011;57084;52.046;5.632;2023-01-24T01:21:00;21.1;;;19.0;;
69404;SDS011;57084;52.046;5.632;2023-01-24T01:22:00;21.1;;;19.0;;
69404;SDS011;57084;52.046;5.632;2023-01-24T01:23:00;21.1;;;19.0;;
69404;SDS011;57084;52.046;5.632;2023-01-24T01:24:00;21.1;;;19.0;;
69404;SDS011;57084;52.046;5.632;2023-01-24T01:25:00;21.1;;;19.0;;
69404;SDS011;57084;52.046;5.632;2023-01-24T01:26:01;20.7;;;18.1;;
69404;SDS011;57084;52.046;5.632;2023-01-24T01:27:00;20.7;;;18.1;;
69404;SDS011;57084;52.046;5.632;2023-01-24T01:28:00;20.7;;;18.1;;
69404;SDS011;57084;52.046;5.632;2023-01-24T01:29:00;20.7;;;18.1;;
69404;SDS011;57084;52.046;5.632;2023-01-24T01:30:00;20.7;;;18.1;;
69404;SDS011;57084;52.046;5.632;2023-01-24T01:31:00;20.7;;;18.1;;
69404;SDS011;57084;52.046;5.632;2023-01-24T01:32:00;19.6;;;17.6;;
69404;SDS011;57084;52.046;5.632;2023-01-24T01:33:00;19.6;;;17.6;;
69404;SDS011;57084;52.046;5.632;2023-01-24T01:34:00;19.6;;;17.6;;
69404;SDS011;57084;52.046;5.632;2023-01-24T01:35:00;19.6;;;17.6;;
69404;SDS011;57084;52.046;5.632;2023-01-24T01:36:00;19.6;;;17.6;;
69404;SDS011;57084;52.046;5.632;2023-01-24T01:37:00;19.0;;;17.2;;
69404;SDS011;57084;52.046;5.632;2023-01-24T01:38:00;19.0;;;17.2;;
69404;SDS011;57084;52.046;5.632;2023-01-24T01:39:00;19.0;;;17.2;;
69404;SDS011;57084;52.046;5.632;2023-01-24T01:40:00;19.0;;;17.2;;
69404;SDS011;57084;52.046;5.632;2023-01-24T01:41:00;19.0;;;17.2;;
69404;SDS011;57084;52.046;5.632;2023-01-24T01:42:00;18.4;;;16.5;;
69404;SDS011;57084;52.046;5.632;2023-01-24T01:43:01;18.4;;;16.5;;
69404;SDS011;57084;52.046;5.632;2023-01-24T01:44:18;18.4;;;16.5;;
69404;SDS011;57084;52.046;5.632;2023-01-24T01:45:29;18.4;;;16.5;;
69404;SDS011;57084;52.046;5.632;2023-01-24T01:46:08;18.4;;;16.5;;
69404;SDS011;57084;52.046;5.632;2023-01-24T01:47:00;19.8;;;17.7;;
69404;SDS011;57084;52.046;5.632;2023-01-24T01:48:03;19.8;;;17.7;;
69404;SDS011;57084;52.046;5.632;2023-01-24T01:49:02;19.8;;;17.7;;
69404;SDS011;57084;52.046;5.632;2023-01-24T01:50:04;19.8;;;17.7;;
69404;SDS011;57084;52.046;5.632;2023-01-24T01:51:04;19.8;;;17.7;;
69404;SDS011;57084;52.046;5.632;2023-01-24T01:52:02;19.2;;;17.4;;
69404;SDS011;57084;52.046;5.632;2023-01-24T01:53:00;19.2;;;17.4;;
69404;SDS011;57084;52.046;5.632;2023-01-24T01:54:02;19.2;;;17.4;;
69404;SDS011;57084;52.046;5.632;2023-01-24T01:55:05;19.2;;;17.4;;
69404;SDS011;57084;52.046;5.632;2023-01-24T01:56:11;19.2;;;17.4;;
69404;SDS011;57084;52.046;5.632;2023-01-24T01:57:03;19.2;;;17.3;;
69404;SDS011;57084;52.046;5.632;2023-01-24T01:58:01;19.2;;;17.3;;
69404;SDS011;57084;52.046;5.632;2023-01-24T01:59:04;19.2;;;17.3;;
69404;SDS011;57084;52.046;5.632;2023-01-24T02:00:04;19.2;;;17.3;;
69404;SDS011;57084;52.046;5.632;2023-01-24T02:01:01;19.2;;;17.3;;
69404;SDS011;57084;52.046;5.632;2023-01-24T02:02:01;18.5;;;16.5;;
69404;SDS011;57084;52.046;5.632;2023-01-24T02:03:04;18.5;;;16.5;;
69404;SDS011;57084;52.046;5.632;2023-01-24T02:04:03;18.5;;;16.5;;
69404;SDS011;57084;52.046;5.632;2023-01-24T02:05:03;18.5;;;16.5;;
69404;SDS011;57084;52.046;5.632;2023-01-24T02:06:00;18.5;;;16.5;;
69404;SDS011;57084;52.046;5.632;2023-01-24T02:07:02;21.0;;;18.8;;
69404;SDS011;57084;52.046;5.632;2023-01-24T02:08:04;21.0;;;18.8;;
69404;SDS011;57084;52.046;5.632;2023-01-24T02:09:01;21.0;;;18.8;;
69404;SDS011;57084;52.046;5.632;2023-01-24T02:10:00;21.0;;;18.8;;
69404;SDS011;57084;52.046;5.632;2023-01-24T02:11:00;21.0;;;18.8;;
69404;SDS011;57084;52.046;5.632;2023-01-24T02:12:03;21.0;;;16.7;;
69404;SDS011;57084;52.046;5.632;2023-01-24T02:13:00;21.0;;;16.7;;
69404;SDS011;57084;52.046;5.632;2023-01-24T02:14:01;21.0;;;16.7;;
69404;SDS011;57084;52.046;5.632;2023-01-24T02:15:05;21.0;;;16.7;;
69404;SDS011;57084;52.046;5.632;2023-01-24T02:16:00;21.0;;;16.7;;
69404;SDS011;57084;52.046;5.632;2023-01-24T02:17:00;22.1;;;19.8;;
69404;SDS011;57084;52.046;5.632;2023-01-24T02:18:00;22.1;;;19.8;;
69404;SDS011;57084;52.046;5.632;2023-01-24T02:19:00;22.1;;;19.8;;
69404;SDS011;57084;52.046;5.632;2023-01-24T02:20:08;22.1;;;19.8;;
69404;SDS011;57084;52.046;5.632;2023-01-24T02:21:02;22.1;;;19.8;;
69404;SDS011;57084;52.046;5.632;2023-01-24T02:22:07;20.0;;;18.1;;
69404;SDS011;57084;52.046;5.632;2023-01-24T02:23:08;20.0;;;18.1;;
69404;SDS011;57084;52.046;5.632;2023-01-24T02:24:04;20.0;;;18.1;;
69404;SDS011;57084;52.046;5.632;2023-01-24T02:25:08;20.0;;;18.1;;
69404;SDS011;57084;52.046;5.632;2023-01-24T02:26:04;20.0;;;18.1;;
69404;SDS011;57084;52.046;5.632;2023-01-24T02:27:00;19.3;;;17.4;;
69404;SDS011;57084;52.046;5.632;2023-01-24T02:28:02;19.3;;;17.4;;
69404;SDS011;57084;52.046;5.632;2023-01-24T02:29:04;19.3;;;17.4;;
69404;SDS011;57084;52.046;5.632;2023-01-24T02:30:00;19.3;;;17.4;;
69404;SDS011;57084;52.046;5.632;2023-01-24T02:31:02;19.3;;;17.4;;
69404;SDS011;57084;52.046;5.632;2023-01-24T02:32:02;20.7;;;18.6;;
69404;SDS011;57084;52.046;5.632;2023-01-24T02:33:09;20.7;;;18.6;;
69404;SDS011;57084;52.046;5.632;2023-01-24T02:34:00;20.7;;;18.6;;
69404;SDS011;57084;52.046;5.632;2023-01-24T02:35:00;20.7;;;18.6;;
69404;SDS011;57084;52.046;5.632;2023-01-24T02:36:11;20.7;;;18.6;;
69404;SDS011;57084;52.046;5.632;2023-01-24T02:37:03;19.2;;;17.2;;
69404;SDS011;57084;52.046;5.632;2023-01-24T02:38:04;19.2;;;17.2;;
69404;SDS011;57084;52.046;5.632;2023-01-24T02:39:02;19.2;;;17.2;;
69404;SDS011;57084;52.046;5.632;2023-01-24T02:40:04;19.2;;;17.2;;
69404;SDS011;57084;52.046;5.632;2023-01-24T02:41:00;19.2;;;17.2;;
69404;SDS011;57084;52.046;5.632;2023-01-24T02:42:04;20.7;;;18.6;;
69404;SDS011;57084;52.046;5.632;2023-01-24T02:43:03;20.7;;;18.6;;
69404;SDS011;57084;52.046;5.632;2023-01-24T02:44:03;20.7;;;18.6;;
69404;SDS011;57084;52.046;5.632;2023-01-24T02:45:04;20.7;;;18.6;;
69404;SDS011;57084;52.046;5.632;2023-01-24T02:46:00;20.7;;;18.6;;
69404;SDS011;57084;52.046;5.632;2023-01-24T02:47:01;20.7;;;18.6;;
69404;SDS011;57084;52.046;5.632;2023-01-24T02:48:01;20.7;;;18.6;;
69404;SDS011;57084;52.046;5.632;2023-01-24T02:49:00;20.7;;;18.6;;
69404;SDS011;57084;52.046;5.632;2023-01-24T02:50:01;20.7;;;18.6;;
69404;SDS011;57084;52.046;5.632;2023-01-24T02:51:00;20.7;;;18.6;;
69404;SDS011;57084;52.046;5.632;2023-01-24T02:52:00;19.4;;;17.5;;
69404;SDS011;57084;52.046;5.632;2023-01-24T02:53:00;19.4;;;17.5;;
69404;SDS011;57084;52.046;5.632;2023-01-24T02:54:00;19.4;;;17.5;;
69404;SDS011;57084;52.046;5.632;2023-01-24T02:55:00;19.4;;;17.5;;
69404;SDS011;57084;52.046;5.632;2023-01-24T02:56:02;19.4;;;17.5;;
69404;SDS011;57084;52.046;5.632;2023-01-24T02:57:00;19.8;;;18.0;;
69404;SDS011;57084;52.046;5.632;2023-01-24T02:58:00;19.8;;;18.0;;
69404;SDS011;57084;52.046;5.632;2023-01-24T02:59:00;19.8;;;18.0;;
69404;SDS011;57084;52.046;5.632;2023-01-24T03:00:00;19.8;;;18.0;;
69404;SDS011;57084;52.046;5.632;2023-01-24T03:01:00;19.8;;;18.0;;
69404;SDS011;57084;52.046;5.632;2023-01-24T03:02:00;19.8;;;17.8;;
69404;SDS011;57084;52.046;5.632;2023-01-24T03:03:00;19.8;;;17.8;;
69404;SDS011;57084;52.046;5.632;2023-01-24T03:04:00;19.8;;;17.8;;
69404;SDS011;57084;52.046;5.632;2023-01-24T03:05:00;19.8;;;17.8;;
69404;SDS011;57084;52.046;5.632;2023-01-24T03:06:00;19.8;;;17.8;;
69404;SDS011;57084;52.046;5.632;2023-01-24T03:07:00;21.4;;;19.2;;
69404;SDS011;57084;52.046;5.632;2023-01-24T03:08:00;21.4;;;19.2;;
69404;SDS011;57084;52.046;5.632;2023-01-24T03:09:00;21.4;;;19.2;;
69404;SDS011;57084;52.046;5.632;2023-01-24T03:10:00;21.4;;;19.2;;
69404;SDS011;57084;52.046;5.632;2023-01-24T03:11:01;21.4;;;19.2;;
69404;SDS011;57084;52.046;5.632;2023-01-24T03:12:02;21.0;;;18.9;;
69404;SDS011;57084;52.046;5.632;2023-01-24T03:13:01;21.0;;;18.9;;
69404;SDS011;57084;52.046;5.632;2023-01-24T03:14:00;21.0;;;18.9;;
69404;SDS011;57084;52.046;5.632;2023-01-24T03:15:00;21.0;;;18.9;;
69404;SDS011;57084;52.046;5.632;2023-01-24T03:16:01;21.0;;;18.9;;
69404;SDS011;57084;52.046;5.632;2023-01-24T03:17:00;20.7;;;18.5;;
69404;SDS011;57084;52.046;5.632;2023-01-24T03:18:00;20.7;;;18.5;;
69404;SDS011;57084;52.046;5.632;2023-01-24T03:19:01;20.7;;;18.5;;
69404;SDS011;57084;52.046;5.632;2023-01-24T03:20:00;20.7;;;18.5;;
69404;SDS011;57084;52.046;5.632;2023-01-24T03:21:00;20.7;;;18.5;;
69404;SDS011;57084;52.046;5.632;2023-01-24T03:22:00;19.2;;;17.2;;
69404;SDS011;57084;52.046;5.632;2023-01-24T03:23:00;19.2;;;17.2;;
69404;SDS011;57084;52.046;5.632;2023-01-24T03:24:00;19.2;;;17.2;;
69404;SDS011;57084;52.046;5.632;2023-01-24T03:25:00;19.2;;;17.2;;
69404;SDS011;57084;52.046;5.632;2023-01-24T03:26:00;19.2;;;17.2;;
69404;SDS011;57084;52.046;5.632;2023-01-24T03:27:00;19.2;;;17.2;;
69404;SDS011;57084;52.046;5.632;2023-01-24T03:28:02;19.7;;;17.6;;
69404;SDS011;57084;52.046;5.632;2023-01-24T03:29:00;19.7;;;17.6;;
69404;SDS011;57084;52.046;5.632;2023-01-24T03:30:01;19.7;;;17.6;;
69404;SDS011;57084;52.046;5.632;2023-01-24T03:31:00;19.7;;;17.6;;
69404;SDS011;57084;52.046;5.632;2023-01-24T03:32:00;19.7;;;17.6;;
69404;SDS011;57084;52.046;5.632;2023-01-24T03:33:01;22.1;;;19.8;;
69404;SDS011;57084;52.046;5.632;2023-01-24T03:34:00;22.1;;;19.8;;
69404;SDS011;57084;52.046;5.632;2023-01-24T03:35:00;22.1;;;19.8;;
69404;SDS011;57084;52.046;5.632;2023-01-24T03:36:00;22.1;;;19.8;;
69404;SDS011;57084;52.046;5.632;2023-01-24T03:37:01;22.1;;;19.8;;
69404;SDS011;57084;52.046;5.632;2023-01-24T03:38:01;20.0;;;18.0;;
69404;SDS011;57084;52.046;5.632;2023-01-24T03:39:00;20.0;;;18.0;;
69404;SDS011;57084;52.046;5.632;2023-01-24T03:40:00;20.0;;;18.0;;
69404;SDS011;57084;52.046;5.632;2023-01-24T03:41:00;20.0;;;18.0;;
69404;SDS011;57084;52.046;5.632;2023-01-24T03:42:00;20.0;;;18.0;;
69404;SDS011;57084;52.046;5.632;2023-01-24T03:43:01;20.8;;;18.6;;
69404;SDS011;57084;52.046;5.632;2023-01-24T03:44:00;20.8;;;18.6;;
69404;SDS011;57084;52.046;5.632;2023-01-24T03:45:00;20.8;;;18.6;;
69404;SDS011;57084;52.046;5.632;2023-01-24T03:46:00;20.8;;;18.6;;
69404;SDS011;57084;52.046;5.632;2023-01-24T03:47:00;20.8;;;18.6;;
69404;SDS011;57084;52.046;5.632;2023-01-24T03:48:02;21.5;;;19.3;;
69404;SDS011;57084;52.046;5.632;2023-01-24T03:49:00;21.5;;;19.3;;
69404;SDS011;57084;52.046;5.632;2023-01-24T03:50:00;21.5;;;19.3;;
69404;SDS011;57084;52.046;5.632;2023-01-24T03:51:00;21.5;;;19.3;;
69404;SDS011;57084;52.046;5.632;2023-01-24T03:52:00;21.5;;;19.3;;
69404;SDS011;57084;52.046;5.632;2023-01-24T03:53:03;21.7;;;19.3;;
69404;SDS011;57084;52.046;5.632;2023-01-24T03:54:01;21.7;;;19.3;;
69404;SDS011;57084;52.046;5.632;2023-01-24T03:55:01;21.7;;;19.3;;
69404;SDS011;57084;52.046;5.632;2023-01-24T03:56:01;21.7;;;19.3;;
69404;SDS011;57084;52.046;5.632;2023-01-24T03:57:00;21.7;;;19.3;;
69404;SDS011;57084;52.046;5.632;2023-01-24T03:58:00;21.6;;;19.4;;
69404;SDS011;57084;52.046;5.632;2023-01-24T03:59:00;21.6;;;19.4;;
69404;SDS011;57084;52.046;5.632;2023-01-24T04:00:00;21.6;;;19.4;;
69404;SDS011;57084;52.046;5.632;2023-01-24T04:01:01;21.6;;;19.4;;
69404;SDS011;57084;52.046;5.632;2023-01-24T04:02:00;21.6;;;19.4;;
69404;SDS011;57084;52.046;5.632;2023-01-24T04:03:01;19.7;;;17.7;;
69404;SDS011;57084;52.046;5.632;2023-01-24T04:04:00;19.7;;;17.7;;
69404;SDS011;57084;52.046;5.632;2023-01-24T04:05:00;19.7;;;17.7;;
69404;SDS011;57084;52.046;5.632;2023-01-24T04:06:00;19.7;;;17.7;;
69404;SDS011;57084;52.046;5.632;2023-01-24T04:07:00;19.7;;;17.7;;
69404;SDS011;57084;52.046;5.632;2023-01-24T04:08:01;21.0;;;18.5;;
69404;SDS011;57084;52.046;5.632;2023-01-24T04:09:00;21.0;;;18.5;;
69404;SDS011;57084;52.046;5.632;2023-01-24T04:10:00;21.0;;;18.5;;
69404;SDS011;57084;52.046;5.632;2023-01-24T04:11:00;21.0;;;18.5;;
69404;SDS011;57084;52.046;5.632;2023-01-24T04:12:00;21.0;;;18.5;;
69404;SDS011;57084;52.046;5.632;2023-01-24T04:13:00;22.4;;;18.7;;
69404;SDS011;57084;52.046;5.632;2023-01-24T04:14:00;22.4;;;18.7;;
69404;SDS011;57084;52.046;5.632;2023-01-24T04:15:00;22.4;;;18.7;;
69404;SDS011;57084;52.046;5.632;2023-01-24T04:16:00;22.4;;;18.7;;
69404;SDS011;57084;52.046;5.632;2023-01-24T04:17:00;22.4;;;18.7;;
69404;SDS011;57084;52.046;5.632;2023-01-24T04:18:02;21.3;;;19.0;;
69404;SDS011;57084;52.046;5.632;2023-01-24T04:19:00;21.3;;;19.0;;
69404;SDS011;57084;52.046;5.632;2023-01-24T04:20:00;21.3;;;19.0;;
69404;SDS011;57084;52.046;5.632;2023-01-24T04:21:01;21.3;;;19.0;;
69404;SDS011;57084;52.046;5.632;2023-01-24T04:22:00;21.3;;;19.0;;
69404;SDS011;57084;52.046;5.632;2023-01-24T04:23:00;22.0;;;18.4;;
69404;SDS011;57084;52.046;5.632;2023-01-24T04:24:00;22.0;;;18.4;;
69404;SDS011;57084;52.046;5.632;2023-01-24T04:25:00;22.0;;;18.4;;
69404;SDS011;57084;52.046;5.632;2023-01-24T04:26:00;22.0;;;18.4;;
69404;SDS011;57084;52.046;5.632;2023-01-24T04:27:00;22.0;;;18.4;;
69404;SDS011;57084;52.046;5.632;2023-01-24T04:28:01;22.2;;;18.5;;
69404;SDS011;57084;52.046;5.632;2023-01-24T04:29:00;22.2;;;18.5;;
69404;SDS011;57084;52.046;5.632;2023-01-24T04:30:00;22.2;;;18.5;;
69404;SDS011;57084;52.046;5.632;2023-01-24T04:31:01;22.2;;;18.5;;
69404;SDS011;57084;52.046;5.632;2023-01-24T04:32:00;22.2;;;18.5;;
69404;SDS011;57084;52.046;5.632;2023-01-24T04:33:00;22.0;;;19.7;;
69404;SDS011;57084;52.046;5.632;2023-01-24T04:34:00;22.0;;;19.7;;
69404;SDS011;57084;52.046;5.632;2023-01-24T04:35:00;22.0;;;19.7;;
69404;SDS011;57084;52.046;5.632;2023-01-24T04:36:00;22.0;;;19.7;;
69404;SDS011;57084;52.046;5.632;2023-01-24T04:37:00;22.0;;;19.7;;
69404;SDS011;57084;52.046;5.632;2023-01-24T04:38:01;19.2;;;17.2;;
69404;SDS011;57084;52.046;5.632;2023-01-24T04:39:00;19.2;;;17.2;;
69404;SDS011;57084;52.046;5.632;2023-01-24T04:40:00;19.2;;;17.2;;
69404;SDS011;57084;52.046;5.632;2023-01-24T04:41:01;19.2;;;17.2;;
69404;SDS011;57084;52.046;5.632;2023-01-24T04:42:00;19.2;;;17.2;;
69404;SDS011;57084;52.046;5.632;2023-01-24T04:43:00;20.2;;;18.0;;
69404;SDS011;57084;52.046;5.632;2023-01-24T04:44:00;20.2;;;18.0;;
69404;SDS011;57084;52.046;5.632;2023-01-24T04:45:00;20.2;;;18.0;;
69404;SDS011;57084;52.046;5.632;2023-01-24T04:46:00;20.2;;;18.0;;
69404;SDS011;57084;52.046;5.632;2023-01-24T04:47:00;20.2;;;18.0;;
69404;SDS011;57084;52.046;5.632;2023-01-24T04:48:00;21.3;;;17.7;;
69404;SDS011;57084;52.046;5.632;2023-01-24T04:49:00;21.3;;;17.7;;
69404;SDS011;57084;52.046;5.632;2023-01-24T04:50:00;21.3;;;17.7;;
69404;SDS011;57084;52.046;5.632;2023-01-24T04:51:00;21.3;;;17.7;;
69404;SDS011;57084;52.046;5.632;2023-01-24T04:52:00;21.3;;;17.7;;
69404;SDS011;57084;52.046;5.632;2023-01-24T04:53:00;23.1;;;19.9;;
69404;SDS011;57084;52.046;5.632;2023-01-24T04:54:00;23.1;;;19.9;;
69404;SDS011;57084;52.046;5.632;2023-01-24T04:55:00;23.1;;;19.9;;
69404;SDS011;57084;52.046;5.632;2023-01-24T04:56:01;23.1;;;19.9;;
69404;SDS011;57084;52.046;5.632;2023-01-24T04:57:00;23.1;;;19.9;;
69404;SDS011;57084;52.046;5.632;2023-01-24T04:58:00;21.4;;;19.0;;
69404;SDS011;57084;52.046;5.632;2023-01-24T04:59:00;21.4;;;19.0;;
69404;SDS011;57084;52.046;5.632;2023-01-24T05:00:00;21.4;;;19.0;;
69404;SDS011;57084;52.046;5.632;2023-01-24T05:01:00;21.4;;;19.0;;
69404;SDS011;57084;52.046;5.632;2023-01-24T05:02:00;21.4;;;19.0;;
69404;SDS011;57084;52.046;5.632;2023-01-24T05:03:00;21.6;;;18.0;;
69404;SDS011;57084;52.046;5.632;2023-01-24T05:04:00;21.6;;;18.0;;
69404;SDS011;57084;52.046;5.632;2023-01-24T05:05:00;21.6;;;18.0;;
69404;SDS011;57084;52.046;5.632;2023-01-24T05:06:00;21.6;;;18.0;;
69404;SDS011;57084;52.046;5.632;2023-01-24T05:07:00;21.6;;;18.0;;
69404;SDS011;57084;52.046;5.632;2023-01-24T05:08:00;20.7;;;17.8;;
69404;SDS011;57084;52.046;5.632;2023-01-24T05:09:01;20.7;;;17.8;;
69404;SDS011;57084;52.046;5.632;2023-01-24T05:10:00;20.7;;;17.8;;
69404;SDS011;57084;52.046;5.632;2023-01-24T05:11:00;20.7;;;17.8;;
69404;SDS011;57084;52.046;5.632;2023-01-24T05:12:00;20.7;;;17.8;;
69404;SDS011;57084;52.046;5.632;2023-01-24T05:13:00;22.9;;;19.4;;
69404;SDS011;57084;52.046;5.632;2023-01-24T05:14:00;22.9;;;19.4;;
69404;SDS011;57084;52.046;5.632;2023-01-24T05:15:00;22.9;;;19.4;;
69404;SDS011;57084;52.046;5.632;2023-01-24T05:16:02;22.9;;;19.4;;
69404;SDS011;57084;52.046;5.632;2023-01-24T05:17:00;22.9;;;19.4;;
69404;SDS011;57084;52.046;5.632;2023-01-24T05:18:01;23.7;;;20.4;;
69404;SDS011;57084;52.046;5.632;2023-01-24T05:19:00;23.7;;;20.4;;
69404;SDS011;57084;52.046;5.632;2023-01-24T05:20:00;23.7;;;20.4;;
69404;SDS011;57084;52.046;5.632;2023-01-24T05:21:04;23.7;;;20.4;;
69404;SDS011;57084;52.046;5.632;2023-01-24T05:22:00;23.7;;;20.4;;
69404;SDS011;57084;52.046;5.632;2023-01-24T05:23:00;23.7;;;20.4;;
69404;SDS011;57084;52.046;5.632;2023-01-24T05:24:00;23.0;;;19.6;;
69404;SDS011;57084;52.046;5.632;2023-01-24T05:25:00;23.0;;;19.6;;
69404;SDS011;57084;52.046;5.632;2023-01-24T05:26:01;23.0;;;19.6;;
69404;SDS011;57084;52.046;5.632;2023-01-24T05:27:00;23.0;;;19.6;;
69404;SDS011;57084;52.046;5.632;2023-01-24T05:28:00;23.0;;;19.6;;
69404;SDS011;57084;52.046;5.632;2023-01-24T05:29:00;24.7;;;21.1;;
69404;SDS011;57084;52.046;5.632;2023-01-24T05:30:00;24.7;;;21.1;;
69404;SDS011;57084;52.046;5.632;2023-01-24T05:31:02;24.7;;;21.1;;
69404;SDS011;57084;52.046;5.632;2023-01-24T05:32:00;24.7;;;21.1;;
69404;SDS011;57084;52.046;5.632;2023-01-24T05:33:00;24.7;;;21.1;;
69404;SDS011;57084;52.046;5.632;2023-01-24T05:34:00;21.9;;;18.5;;
69404;SDS011;57084;52.046;5.632;2023-01-24T05:35:00;21.9;;;18.5;;
69404;SDS011;57084;52.046;5.632;2023-01-24T05:36:02;21.9;;;18.5;;
69404;SDS011;57084;52.046;5.632;2023-01-24T05:37:00;21.9;;;18.5;;
69404;SDS011;57084;52.046;5.632;2023-01-24T05:38:00;21.9;;;18.5;;
69404;SDS011;57084;52.046;5.632;2023-01-24T05:39:00;22.7;;;20.3;;
69404;SDS011;57084;52.046;5.632;2023-01-24T05:40:00;22.7;;;20.3;;
69404;SDS011;57084;52.046;5.632;2023-01-24T05:41:02;22.7;;;20.3;;
69404;SDS011;57084;52.046;5.632;2023-01-24T05:42:00;22.7;;;20.3;;
69404;SDS011;57084;52.046;5.632;2023-01-24T05:43:00;22.7;;;20.3;;
69404;SDS011;57084;52.046;5.632;2023-01-24T05:44:00;23.3;;;20.8;;
69404;SDS011;57084;52.046;5.632;2023-01-24T05:45:00;23.3;;;20.8;;
69404;SDS011;57084;52.046;5.632;2023-01-24T05:46:02;23.3;;;20.8;;
69404;SDS011;57084;52.046;5.632;2023-01-24T05:47:00;23.3;;;20.8;;
69404;SDS011;57084;52.046;5.632;2023-01-24T05:48:00;23.3;;;20.8;;
69404;SDS011;57084;52.046;5.632;2023-01-24T05:49:00;24.9;;;20.6;;
69404;SDS011;57084;52.046;5.632;2023-01-24T05:50:00;24.9;;;20.6;;
69404;SDS011;57084;52.046;5.632;2023-01-24T05:51:02;24.9;;;20.6;;
69404;SDS011;57084;52.046;5.632;2023-01-24T05:52:00;24.9;;;20.6;;
69404;SDS011;57084;52.046;5.632;2023-01-24T05:53:01;24.9;;;20.6;;
69404;SDS011;57084;52.046;5.632;2023-01-24T05:54:00;23.2;;;19.4;;
69404;SDS011;57084;52.046;5.632;2023-01-24T05:55:00;23.2;;;19.4;;
69404;SDS011;57084;52.046;5.632;2023-01-24T05:56:02;23.2;;;19.4;;
69404;SDS011;57084;52.046;5.632;2023-01-24T05:57:00;23.2;;;19.4;;
69404;SDS011;57084;52.046;5.632;2023-01-24T05:58:00;23.2;;;19.4;;
69404;SDS011;57084;52.046;5.632;2023-01-24T05:59:00;24.5;;;20.3;;
69404;SDS011;57084;52.046;5.632;2023-01-24T06:00:00;24.5;;;20.3;;
69404;SDS011;57084;52.046;5.632;2023-01-24T06:01:00;24.5;;;20.3;;